Time;durP1;ratioP1;P1;durP2;ratioP2;P2;SDS_P1;SDS_P2;PMS_P1;PMS_P2;Temp;Humidity;BMP_temperature;BMP_pressure;BME280_temperature;BME280_humidity;BME280_pressure;Samples;Min_cycle;Max_cycle;Signal;HPM_P1;HPM_P2
2022/12/28 00:01:05;;;;;;;3.00;1.57;;;7.90;96.80;;;;;;4994321;28;20454;-76
2022/12/28 00:03:32;;;;;;;3.10;1.43;;;8.00;96.70;;;;;;4993899;28;20801;-77
2022/12/28 00:05:59;;;;;;;7.30;1.50;;;8.00;96.80;;;;;;4992229;28;20493;-77
2022/12/28 00:08:26;;;;;;;4.33;1.10;;;8.00;96.80;;;;;;4994386;28;20462;-77
2022/12/28 00:10:54;;;;;;;3.70;1.90;;;8.10;97.10;;;;;;4994140;28;20480;-76
2022/12/28 00:13:21;;;;;;;3.60;1.57;;;8.10;97.40;;;;;;4994192;28;20467;-76
2022/12/28 00:15:49;;;;;;;6.53;1.60;;;8.10;97.50;;;;;;4994112;28;20521;-76
2022/12/28 00:18:16;;;;;;;2.30;1.40;;;8.10;97.70;;;;;;4993801;28;20443;-76
2022/12/28 00:20:42;;;;;;;5.33;1.53;;;8.20;98.10;;;;;;4994283;28;20534;-76
2022/12/28 00:23:09;;;;;;;3.43;1.20;;;8.20;98.10;;;;;;4994021;28;20474;-76
2022/12/28 00:25:36;;;;;;;2.73;1.40;;;8.20;98.10;;;;;;4983966;28;20844;-77
2022/12/28 00:28:03;;;;;;;3.07;1.10;;;8.20;98.10;;;;;;4974596;28;20479;-77
2022/12/28 00:30:30;;;;;;;5.03;1.20;;;8.20;98.10;;;;;;4974697;28;20456;-77
2022/12/28 00:32:58;;;;;;;2.80;1.13;;;8.20;98.10;;;;;;4977698;28;20475;-76
2022/12/28 00:35:25;;;;;;;10.10;1.23;;;8.20;98.00;;;;;;4978653;28;20532;-77
2022/12/28 00:37:52;;;;;;;7.90;1.70;;;8.20;98.10;;;;;;4978517;28;20454;-76
2022/12/28 00:40:19;;;;;;;1.40;1.30;;;8.20;98.00;;;;;;4978383;28;20458;-76
2022/12/28 00:42:45;;;;;;;2.37;1.30;;;8.30;98.20;;;;;;4978387;28;20455;-77
2022/12/28 00:45:12;;;;;;;2.33;1.10;;;8.30;98.00;;;;;;4978393;28;20474;-77
2022/12/28 00:47:39;;;;;;;4.80;1.33;;;8.40;98.10;;;;;;4978388;28;20805;-78
2022/12/28 00:50:08;;;;;;;7.00;1.40;;;8.40;98.20;;;;;;4978403;28;20466;-77
2022/12/28 00:52:35;;;;;;;3.93;1.30;;;8.30;98.20;;;;;;4977855;28;20956;-77
2022/12/28 00:55:02;;;;;;;4.97;1.20;;;8.40;98.40;;;;;;4978235;28;20475;-77
2022/12/28 00:57:28;;;;;;;3.20;1.10;;;8.40;98.60;;;;;;4978119;28;20785;-78
2022/12/28 00:59:55;;;;;;;2.97;1.33;;;8.40;98.70;;;;;;4977919;28;20459;-78
2022/12/28 01:02:22;;;;;;;3.23;1.17;;;8.40;98.90;;;;;;4977711;28;20953;-78
2022/12/28 01:04:49;;;;;;;3.30;1.67;;;8.40;99.10;;;;;;4978077;28;20467;-79
2022/12/28 01:07:17;;;;;;;4.00;1.33;;;8.40;99.30;;;;;;4985750;28;20553;-78
2022/12/28 01:09:49;;;;;;;6.83;1.50;;;8.40;99.50;;;;;;4997213;28;20457;-78
2022/12/28 01:12:16;;;;;;;4.13;1.60;;;8.40;99.70;;;;;;4993356;28;20793;-77
2022/12/28 01:14:43;;;;;;;5.90;1.50;;;8.40;99.80;;;;;;4977912;28;20496;-77
2022/12/28 01:17:09;;;;;;;4.30;1.30;;;8.50;99.90;;;;;;4977359;28;21046;-77
2022/12/28 01:19:36;;;;;;;2.70;1.70;;;8.50;99.80;;;;;;4977564;28;20450;-78
2022/12/28 01:22:03;;;;;;;4.43;1.87;;;8.50;99.80;;;;;;4979855;28;20463;-78
2022/12/28 01:24:31;;;;;;;7.33;1.73;;;8.50;99.90;;;;;;4988963;28;20498;-77
2022/12/28 01:26:57;;;;;;;1.67;1.03;;;8.50;99.90;;;;;;4993557;28;20978;-76
2022/12/28 01:29:24;;;;;;;4.00;1.00;;;8.50;99.80;;;;;;4996563;28;20444;-77
2022/12/28 01:31:51;;;;;;;2.20;1.27;;;8.50;99.80;;;;;;4986366;28;20471;-76
2022/12/28 01:34:17;;;;;;;2.90;1.63;;;8.60;99.80;;;;;;4977177;28;20871;-76
2022/12/28 01:36:44;;;;;;;4.20;1.20;;;8.60;99.80;;;;;;4989602;28;20490;-76
2022/12/28 01:39:11;;;;;;;3.37;1.43;;;8.60;99.90;;;;;;4996625;28;20446;-76
2022/12/28 01:41:41;;;;;;;3.40;1.60;;;8.60;99.90;;;;;;4996651;28;20467;-76
2022/12/28 01:44:41;;;;;;;4.43;1.50;;;8.60;99.80;;;;;;4995048;28;20464;-76
2022/12/28 01:47:12;;;;;;;7.10;2.10;;;8.60;99.80;;;;;;4996800;28;20442;-76
2022/12/28 01:49:43;;;;;;;1.67;1.00;;;8.60;99.60;;;;;;4995636;28;20455;-78
2022/12/28 01:52:14;;;;;;;4.37;1.63;;;8.60;99.50;;;;;;4996383;28;21029;-76
2022/12/28 01:54:45;;;;;;;1.93;1.30;;;8.70;99.50;;;;;;4997059;28;20488;-76
2022/12/28 01:57:15;;;;;;;4.17;1.40;;;8.70;99.50;;;;;;4997115;28;20512;-76
2022/12/28 01:59:44;;;;;;;3.40;1.70;;;8.80;99.50;;;;;;4996542;28;20946;-76
2022/12/28 02:02:13;;;;;;;3.90;1.37;;;8.80;99.40;;;;;;4996322;28;20854;-76
2022/12/28 02:04:40;;;;;;;2.30;1.43;;;8.80;99.40;;;;;;4996570;28;20484;-77
2022/12/28 02:07:07;;;;;;;2.00;1.00;;;8.80;99.40;;;;;;4996306;28;20449;-77
2022/12/28 02:09:39;;;;;;;2.30;1.53;;;8.70;99.50;;;;;;4993977;28;20462;-76
2022/12/28 02:12:06;;;;;;;3.13;1.20;;;8.80;99.50;;;;;;4977030;28;20448;-76
2022/12/28 02:14:35;;;;;;;1.70;1.10;;;8.80;99.50;;;;;;4977544;28;20980;-77
2022/12/28 02:17:02;;;;;;;2.57;1.30;;;8.80;99.40;;;;;;4976483;28;20850;-76
2022/12/28 02:19:37;;;;;;;3.97;1.40;;;8.80;99.40;;;;;;4976581;28;20991;-76
2022/12/28 02:22:26;;;;;;;1.87;1.47;;;8.80;99.20;;;;;;4976941;28;20448;-77
2022/12/28 02:25:19;;;;;;;2.60;1.30;;;8.80;99.20;;;;;;4977112;28;20488;-77
2022/12/28 02:27:54;;;;;;;3.03;0.90;;;8.90;99.20;;;;;;4976946;28;20454;-77
2022/12/28 02:30:22;;;;;;;2.60;1.20;;;8.90;99.10;;;;;;4976634;28;20443;-77
2022/12/28 02:33:00;;;;;;;3.93;1.20;;;8.90;99.10;;;;;;4976430;28;20468;-77
2022/12/28 02:35:34;;;;;;;2.03;1.40;;;8.90;99.00;;;;;;4976920;28;20487;-78
2022/12/28 02:38:06;;;;;;;1.43;1.10;;;8.90;99.20;;;;;;4976403;28;20444;-76
2022/12/28 02:40:37;;;;;;;2.43;1.20;;;9.00;99.20;;;;;;4976140;28;20939;-78
2022/12/28 02:43:04;;;;;;;2.10;1.13;;;9.00;99.00;;;;;;4976402;28;20441;-77
2022/12/28 02:51:43;;;;;;;2.80;1.20;;;9.10;98.90;;;;;;4976751;28;20412;-77
2022/12/28 02:57:37;;;;;;;1.20;1.10;;;9.10;98.90;;;;;;4959390;28;20570;-77
2022/12/28 03:00:07;;;;;;;1.77;1.20;;;9.10;98.80;;;;;;4976351;28;20437;-76
2022/12/28 03:02:45;;;;;;;1.70;1.10;;;9.10;98.70;;;;;;4978843;28;20436;-76
2022/12/28 03:08:13;;;;;;;2.70;1.47;;;9.10;98.80;;;;;;4988412;28;20479;-76
2022/12/28 03:08:18;;;;;;;4.37;1.30;;;9.10;98.90;;;;;;4988314;28;20437;-76
2022/12/28 03:10:49;;;;;;;1.20;1.10;;;9.10;98.80;;;;;;4991221;28;20531;-76
2022/12/28 03:16:09;;;;;;;2.40;1.30;;;9.20;98.80;;;;;;4976674;28;20483;-77
2022/12/28 03:32:37;;;;;;;1.93;1.73;;;9.20;98.80;;;;;;4995495;28;20447;-76
2022/12/28 03:35:06;;;;;;;1.77;1.00;;;9.20;98.90;;;;;;4995632;28;20495;-78
2022/12/28 03:37:38;;;;;;;4.57;1.53;;;9.30;98.90;;;;;;4989085;28;20488;-78
2022/12/28 03:40:10;;;;;;;3.57;1.70;;;9.20;98.80;;;;;;4988227;28;20445;-78
2022/12/28 03:45:37;;;;;;;2.70;1.80;;;9.30;98.80;;;;;;4975864;28;20442;-78
2022/12/28 03:48:05;;;;;;;2.00;1.10;;;9.30;99.00;;;;;;4976185;28;20456;-78
2022/12/28 03:50:37;;;;;;;3.67;1.70;;;9.30;99.00;;;;;;4975957;28;20453;-78
2022/12/28 03:53:04;;;;;;;3.80;1.20;;;9.40;99.10;;;;;;4975813;28;20452;-78
2022/12/28 03:55:31;;;;;;;6.60;1.60;;;9.30;99.00;;;;;;4975250;28;20984;-77
2022/12/28 03:57:58;;;;;;;3.80;1.70;;;9.30;99.10;;;;;;4975596;28;20481;-77
2022/12/28 04:00:24;;;;;;;2.17;1.50;;;9.30;99.30;;;;;;4984387;28;20456;-78
2022/12/28 04:02:51;;;;;;;4.93;2.10;;;9.40;99.30;;;;;;4995282;28;20463;-78
2022/12/28 04:05:20;;;;;;;4.50;1.50;;;9.40;99.20;;;;;;4976461;28;20539;-78
2022/12/28 04:07:49;;;;;;;5.50;1.70;;;9.40;99.10;;;;;;4988164;28;20459;-77
2022/12/28 04:10:15;;;;;;;3.73;1.80;;;9.50;99.10;;;;;;4994994;28;20447;-78
2022/12/28 04:12:42;;;;;;;6.87;1.80;;;9.50;99.10;;;;;;4995800;28;20463;-78
2022/12/28 04:15:10;;;;;;;4.80;2.30;;;9.40;99.10;;;;;;4995069;28;20527;-78
2022/12/28 04:17:36;;;;;;;4.30;1.80;;;9.50;99.50;;;;;;4994650;28;20495;-78
2022/12/28 04:20:04;;;;;;;3.90;1.47;;;9.50;99.20;;;;;;4981226;28;20460;-79
2022/12/28 04:22:30;;;;;;;3.40;1.80;;;9.60;99.20;;;;;;4975001;28;20460;-78
2022/12/28 04:24:58;;;;;;;3.17;1.60;;;9.60;99.20;;;;;;4974835;28;20487;-79
2022/12/28 04:27:25;;;;;;;3.53;2.10;;;9.60;99.20;;;;;;4975307;28;20845;-78
2022/12/28 04:29:52;;;;;;;4.30;1.47;;;9.60;99.10;;;;;;4975102;28;20456;-78
2022/12/28 04:32:18;;;;;;;1.73;1.30;;;9.60;99.30;;;;;;4974821;28;20805;-78
2022/12/28 04:34:45;;;;;;;1.97;1.47;;;9.60;99.20;;;;;;4974635;28;20480;-78
2022/12/28 04:37:12;;;;;;;5.23;2.30;;;9.60;99.10;;;;;;4974778;28;20489;-78
2022/12/28 04:39:38;;;;;;;2.47;1.60;;;9.60;99.20;;;;;;4974983;28;20452;-78
2022/12/28 04:42:07;;;;;;;3.90;1.60;;;9.60;99.00;;;;;;4974930;28;20462;-78
2022/12/28 04:44:33;;;;;;;1.40;1.30;;;9.60;99.10;;;;;;4975090;28;20479;-78
2022/12/28 04:47:00;;;;;;;4.00;1.70;;;9.70;99.00;;;;;;4974714;28;20451;-78
2022/12/28 04:49:27;;;;;;;6.00;2.00;;;9.70;99.00;;;;;;4974950;28;20972;-78
2022/12/28 04:51:53;;;;;;;4.60;1.93;;;9.80;98.90;;;;;;4984253;28;20485;-78
2022/12/28 04:54:20;;;;;;;6.10;1.63;;;9.70;99.00;;;;;;4986934;28;20877;-78
2022/12/28 04:56:47;;;;;;;2.00;1.40;;;9.70;99.00;;;;;;4978669;28;20483;-78
2022/12/28 04:59:15;;;;;;;3.70;1.60;;;9.80;98.90;;;;;;4978116;28;20460;-78
2022/12/28 05:01:41;;;;;;;2.43;1.90;;;9.80;99.00;;;;;;4974667;28;20457;-77
2022/12/28 05:04:08;;;;;;;5.73;1.97;;;9.80;99.00;;;;;;4974333;28;20479;-77
2022/12/28 05:06:35;;;;;;;3.17;1.70;;;9.90;99.00;;;;;;4975099;28;20457;-77
2022/12/28 05:09:02;;;;;;;4.20;1.73;;;9.90;98.90;;;;;;4974257;28;20471;-77
2022/12/28 05:11:30;;;;;;;1.77;1.40;;;9.90;98.80;;;;;;4973982;28;20452;-77
2022/12/28 05:13:57;;;;;;;3.00;1.40;;;9.90;98.90;;;;;;4984089;28;20467;-77
2022/12/28 05:16:28;;;;;;;7.10;2.17;;;9.90;99.00;;;;;;4993621;28;20495;-77
2022/12/28 05:18:56;;;;;;;1.63;1.53;;;10.00;98.40;;;;;;4996538;28;20478;-77
2022/12/28 05:21:24;;;;;;;1.30;1.20;;;9.90;99.10;;;;;;4997249;28;20495;-77
2022/12/28 05:23:52;;;;;;;3.27;1.70;;;9.90;99.20;;;;;;5000055;28;20772;-78
2022/12/28 05:26:21;;;;;;;3.60;1.50;;;9.90;99.00;;;;;;4999932;28;20473;-78
2022/12/28 05:28:48;;;;;;;3.87;1.90;;;10.00;98.40;;;;;;4999462;28;20459;-78
2022/12/28 05:31:16;;;;;;;4.83;1.60;;;10.00;98.40;;;;;;4998929;28;20832;-78
2022/12/28 05:33:46;;;;;;;5.67;1.70;;;10.00;98.50;;;;;;4999568;28;21038;-78
2022/12/28 05:36:14;;;;;;;4.73;1.87;;;10.00;98.60;;;;;;4999289;28;20479;-79
2022/12/28 05:38:41;;;;;;;3.53;1.50;;;10.00;98.50;;;;;;5000316;28;20452;-78
2022/12/28 05:41:09;;;;;;;3.53;1.70;;;10.00;98.40;;;;;;5000292;28;20460;-78
2022/12/28 05:43:36;;;;;;;4.07;1.70;;;10.10;98.50;;;;;;5000362;28;20952;-78
2022/12/28 05:46:05;;;;;;;4.60;1.63;;;10.10;98.40;;;;;;4997887;28;20506;-78
2022/12/28 05:48:32;;;;;;;3.70;1.40;;;10.10;98.40;;;;;;4997885;28;20439;-78
2022/12/28 05:51:03;;;;;;;4.97;1.30;;;10.10;98.40;;;;;;4997536;28;20467;-78
2022/12/28 05:53:31;;;;;;;3.30;1.60;;;10.10;98.30;;;;;;4998061;28;20927;-78
2022/12/28 05:56:02;;;;;;;2.03;1.10;;;10.10;98.40;;;;;;4998098;28;20470;-78
2022/12/28 05:58:30;;;;;;;1.60;1.10;;;10.10;98.50;;;;;;4998851;28;20524;-78
2022/12/28 06:01:04;;;;;;;3.77;2.53;;;10.10;98.50;;;;;;4998908;28;20446;-78
2022/12/28 06:03:32;;;;;;;5.30;1.80;;;10.10;98.70;;;;;;4999949;28;20475;-78
2022/12/28 06:06:05;;;;;;;4.13;1.37;;;10.10;98.80;;;;;;4998311;28;20483;-78
2022/12/28 06:08:32;;;;;;;2.27;1.00;;;10.10;98.80;;;;;;4979742;28;20450;-78
2022/12/28 06:11:01;;;;;;;1.40;1.30;;;10.10;98.90;;;;;;4979796;28;20502;-78
2022/12/28 06:13:28;;;;;;;2.90;1.60;;;10.10;98.90;;;;;;4979691;28;20448;-78
2022/12/28 06:15:55;;;;;;;2.80;1.87;;;10.10;99.00;;;;;;4980031;28;21034;-78
2022/12/28 06:18:22;;;;;;;3.60;1.80;;;10.10;99.00;;;;;;4980406;28;20491;-78
2022/12/28 06:20:48;;;;;;;2.40;1.27;;;10.20;99.10;;;;;;4981601;28;20472;-78
2022/12/28 06:23:16;;;;;;;4.03;1.60;;;10.20;99.10;;;;;;4980533;28;20467;-78
2022/12/28 06:25:43;;;;;;;5.03;1.40;;;10.20;99.20;;;;;;4977689;28;20485;-79
2022/12/28 06:28:10;;;;;;;4.53;1.40;;;10.10;99.20;;;;;;4978111;28;20459;-79
2022/12/28 06:30:36;;;;;;;1.87;1.77;;;10.20;99.30;;;;;;4977968;28;20491;-78
2022/12/28 06:33:03;;;;;;;2.50;1.40;;;10.20;99.30;;;;;;4979262;28;20964;-78
2022/12/28 06:35:30;;;;;;;3.40;1.83;;;10.20;99.30;;;;;;4978686;28;20478;-78
2022/12/28 06:37:57;;;;;;;4.17;1.37;;;10.20;99.30;;;;;;4979394;28;20603;-78
2022/12/28 06:40:25;;;;;;;2.80;1.50;;;10.20;99.40;;;;;;4978822;28;20462;-78
2022/12/28 06:42:54;;;;;;;3.77;1.77;;;10.20;99.50;;;;;;4978894;28;20456;-78
2022/12/28 06:45:21;;;;;;;4.47;1.57;;;10.20;99.60;;;;;;4978545;28;20488;-78
2022/12/28 06:47:54;;;;;;;5.50;1.17;;;10.20;99.70;;;;;;4978815;28;20448;-78
2022/12/28 06:50:21;;;;;;;3.80;1.57;;;10.30;99.70;;;;;;4978572;28;20865;-78
2022/12/28 06:52:48;;;;;;;2.50;1.10;;;10.20;99.60;;;;;;4979201;28;20463;-79
2022/12/28 06:55:15;;;;;;;3.33;0.90;;;10.20;99.60;;;;;;4995410;28;20489;-78
2022/12/28 06:57:43;;;;;;;4.73;1.20;;;10.30;99.80;;;;;;4989775;28;20499;-78
2022/12/28 07:00:11;;;;;;;1.87;1.30;;;10.30;99.90;;;;;;4979348;28;20456;-79
2022/12/28 07:02:38;;;;;;;1.70;1.10;;;10.30;99.90;;;;;;4999068;28;20463;-78
2022/12/28 07:05:05;;;;;;;3.20;1.20;;;10.30;99.90;;;;;;5003381;28;20478;-78
2022/12/28 07:07:31;;;;;;;3.43;0.87;;;10.20;99.90;;;;;;4984834;28;20468;-78
2022/12/28 07:09:58;;;;;;;2.07;1.27;;;10.20;99.90;;;;;;4996716;28;20467;-78
2022/12/28 07:12:25;;;;;;;2.20;1.10;;;10.30;99.90;;;;;;4986239;28;20846;-78
2022/12/28 07:14:53;;;;;;;1.93;1.10;;;10.30;99.90;;;;;;4982104;28;20487;-78
2022/12/28 07:17:19;;;;;;;4.70;1.10;;;10.30;99.90;;;;;;4981106;28;20492;-78
2022/12/28 07:19:46;;;;;;;3.40;1.27;;;10.20;99.90;;;;;;4980153;28;20464;-78
2022/12/28 07:22:13;;;;;;;2.83;1.00;;;10.20;99.90;;;;;;4978968;28;20460;-78
2022/12/28 07:24:39;;;;;;;6.67;1.23;;;10.30;99.90;;;;;;4984855;28;20482;-78
2022/12/28 07:27:06;;;;;;;3.83;1.00;;;10.30;99.90;;;;;;4995420;28;20453;-78
2022/12/28 07:29:33;;;;;;;2.43;1.17;;;10.30;99.90;;;;;;4979534;28;20815;-78
2022/12/28 07:32:01;;;;;;;4.33;0.80;;;10.30;99.90;;;;;;4991717;28;20547;-78
2022/12/28 07:34:27;;;;;;;3.80;1.10;;;10.20;99.90;;;;;;4980128;28;20477;-77
2022/12/28 07:36:54;;;;;;;2.90;1.60;;;10.20;99.90;;;;;;4975986;28;20465;-78
2022/12/28 07:39:21;;;;;;;2.50;1.10;;;10.20;99.90;;;;;;4975651;28;20444;-78
2022/12/28 07:41:47;;;;;;;2.03;0.80;;;10.30;99.90;;;;;;4975489;28;20449;-77
2022/12/28 07:44:15;;;;;;;3.43;1.40;;;10.30;99.90;;;;;;4975656;28;20579;-78
2022/12/28 07:46:42;;;;;;;1.57;1.40;;;10.30;99.90;;;;;;4975886;28;20441;-79
2022/12/28 07:49:11;;;;;;;3.50;1.00;;;10.30;99.90;;;;;;4976992;28;20510;-78
2022/12/28 07:51:39;;;;;;;2.27;1.17;;;10.30;99.90;;;;;;4991278;28;20875;-79
2022/12/28 07:54:07;;;;;;;2.17;1.00;;;10.30;99.90;;;;;;4996400;28;20440;-78
2022/12/28 07:56:34;;;;;;;2.47;0.70;;;10.40;99.90;;;;;;4989255;28;20446;-77
2022/12/28 07:59:03;;;;;;;0.80;0.80;;;10.40;99.90;;;;;;4989275;28;20530;-77
2022/12/28 08:01:31;;;;;;;2.40;0.87;;;10.40;99.90;;;;;;5007484;28;20459;-77
2022/12/28 08:03:59;;;;;;;1.03;0.60;;;10.40;99.90;;;;;;4989272;28;20470;-77
2022/12/28 08:06:30;;;;;;;1.47;1.00;;;10.40;99.90;;;;;;4993057;28;20933;-77
2022/12/28 08:09:00;;;;;;;4.23;1.37;;;10.40;99.90;;;;;;4989782;28;20495;-77
2022/12/28 08:11:29;;;;;;;4.30;1.40;;;10.40;99.90;;;;;;4990757;28;20463;-77
2022/12/28 08:13:57;;;;;;;2.53;1.00;;;10.50;99.90;;;;;;4990205;28;21069;-78
2022/12/28 08:16:26;;;;;;;1.43;0.90;;;10.50;99.90;;;;;;4991822;28;20874;-78
2022/12/28 08:18:53;;;;;;;1.87;0.90;;;10.50;99.90;;;;;;4988317;28;20519;-78
2022/12/28 08:21:22;;;;;;;3.33;0.83;;;10.50;99.90;;;;;;4993147;28;20469;-78
2022/12/28 08:23:51;;;;;;;2.93;1.40;;;10.50;99.90;;;;;;4991778;28;20464;-78
2022/12/28 08:26:20;;;;;;;0.87;0.80;;;10.50;99.90;;;;;;4993459;28;20526;-78
2022/12/28 08:28:49;;;;;;;6.17;1.30;;;10.50;99.90;;;;;;4992300;28;20455;-78
2022/12/28 08:31:19;;;;;;;1.93;0.87;;;10.60;99.90;;;;;;4993393;28;20444;-78
2022/12/28 08:33:47;;;;;;;1.43;0.83;;;10.60;99.80;;;;;;4989967;28;20458;-77
2022/12/28 08:36:14;;;;;;;1.63;1.00;;;10.60;99.60;;;;;;4991829;28;20514;-76
2022/12/28 08:38:42;;;;;;;1.80;0.80;;;10.60;99.70;;;;;;4990967;28;20612;-77
2022/12/28 08:41:13;;;;;;;2.10;0.90;;;10.60;99.60;;;;;;4991320;28;20553;-77
2022/12/28 08:43:40;;;;;;;3.07;1.03;;;10.60;99.60;;;;;;4991933;28;20474;-78
2022/12/28 08:46:10;;;;;;;2.60;1.03;;;10.70;99.70;;;;;;4993763;28;20480;-77
2022/12/28 08:48:37;;;;;;;1.80;0.70;;;10.70;99.60;;;;;;4994161;28;20451;-77
2022/12/28 08:51:06;;;;;;;1.23;1.13;;;10.70;99.60;;;;;;4988488;28;20473;-77
2022/12/28 08:53:32;;;;;;;0.90;0.83;;;10.70;99.60;;;;;;4976682;28;20453;-77
2022/12/28 08:56:04;;;;;;;1.00;0.70;;;10.80;99.50;;;;;;4981244;28;20483;-77
2022/12/28 08:58:32;;;;;;;1.47;0.80;;;10.80;99.30;;;;;;4979292;28;20488;-77
2022/12/28 09:01:06;;;;;;;1.70;1.00;;;10.80;99.40;;;;;;4978342;28;20470;-77
2022/12/28 09:03:34;;;;;;;2.53;0.83;;;10.80;99.20;;;;;;4977929;28;20917;-77
2022/12/28 09:06:03;;;;;;;3.30;0.83;;;10.70;99.30;;;;;;4977944;28;21011;-77
2022/12/28 09:08:29;;;;;;;1.40;0.80;;;10.70;99.40;;;;;;4983665;28;20456;-78
2022/12/28 09:11:00;;;;;;;1.20;0.73;;;10.70;99.40;;;;;;4981468;28;20817;-77
2022/12/28 09:13:27;;;;;;;0.80;0.80;;;10.70;99.40;;;;;;4978633;28;20452;-77
2022/12/28 09:15:58;;;;;;;1.87;0.87;;;10.80;99.30;;;;;;4992959;28;20496;-77
2022/12/28 09:18:26;;;;;;;1.37;0.60;;;10.80;99.10;;;;;;4995911;28;21058;-77
2022/12/28 09:20:52;;;;;;;1.87;1.00;;;10.80;99.10;;;;;;4994496;28;20464;-77
2022/12/28 09:23:19;;;;;;;3.30;0.93;;;10.90;99.20;;;;;;4995848;28;20480;-77
2022/12/28 09:25:46;;;;;;;1.50;0.77;;;10.90;99.10;;;;;;4994957;28;21031;-77
2022/12/28 09:28:13;;;;;;;1.10;0.50;;;10.90;98.70;;;;;;4998898;28;20474;-77
2022/12/28 09:30:40;;;;;;;1.13;0.90;;;10.90;98.70;;;;;;4991023;28;20474;-77
2022/12/28 09:35:57;;;;;;;3.20;1.03;;;10.90;98.60;;;;;;4988696;28;20816;-77
2022/12/28 09:38:24;;;;;;;1.17;0.63;;;11.00;98.90;;;;;;4980471;28;20476;-77
2022/12/28 09:40:51;;;;;;;1.17;0.50;;;11.00;98.50;;;;;;4980196;28;20468;-78
2022/12/28 09:43:18;;;;;;;2.50;0.80;;;11.00;98.30;;;;;;4980592;28;20464;-77
2022/12/28 09:45:46;;;;;;;2.63;1.07;;;11.10;98.40;;;;;;4979592;28;20472;-77
2022/12/28 09:48:17;;;;;;;0.83;0.83;;;11.10;98.30;;;;;;4979500;28;20435;-78
2022/12/28 09:50:46;;;;;;;2.83;0.73;;;11.10;98.30;;;;;;4978884;28;20440;-77
2022/12/28 09:53:25;;;;;;;3.10;0.60;;;11.20;98.20;;;;;;4978516;28;20437;-77
2022/12/28 09:56:14;;;;;;;0.93;0.70;;;11.20;98.10;;;;;;4978241;28;20977;-78
2022/12/28 09:58:43;;;;;;;2.23;0.77;;;11.20;98.20;;;;;;4978343;28;20477;-77
2022/12/28 10:01:13;;;;;;;3.03;0.77;;;11.20;98.30;;;;;;4993888;28;20449;-77
2022/12/28 10:03:43;;;;;;;3.33;0.90;;;11.20;98.30;;;;;;4991934;28;20437;-77
2022/12/28 10:06:12;;;;;;;0.93;0.80;;;11.30;98.10;;;;;;4988824;28;20845;-78
2022/12/28 10:08:43;;;;;;;2.63;0.80;;;11.30;98.00;;;;;;4986365;28;20453;-77
2022/12/28 10:11:17;;;;;;;1.53;0.83;;;11.30;97.90;;;;;;4987861;28;20446;-78
2022/12/28 10:13:44;;;;;;;2.73;0.70;;;11.30;98.10;;;;;;4987266;28;20432;-78
2022/12/28 10:16:18;;;;;;;2.33;0.63;;;11.30;98.00;;;;;;4984969;28;20478;-78
2022/12/28 10:18:48;;;;;;;2.60;0.97;;;11.30;98.10;;;;;;4986805;28;20486;-77
2022/12/28 10:21:17;;;;;;;1.77;0.80;;;11.40;97.70;;;;;;4986426;28;20976;-78
2022/12/28 10:23:45;;;;;;;2.13;1.00;;;11.50;97.40;;;;;;4985837;28;20456;-77
2022/12/28 10:26:17;;;;;;;3.53;0.83;;;11.50;97.50;;;;;;5005231;28;20999;-77
2022/12/28 10:28:48;;;;;;;3.43;0.80;;;11.50;97.40;;;;;;4996625;28;20460;-77
2022/12/28 10:31:15;;;;;;;1.30;0.73;;;11.50;97.30;;;;;;5006105;28;20436;-78
2022/12/28 10:33:51;;;;;;;1.47;0.70;;;11.50;97.30;;;;;;5005609;28;20875;-77
2022/12/28 10:36:20;;;;;;;3.40;0.70;;;11.50;97.10;;;;;;5005333;28;20472;-77
2022/12/28 10:38:51;;;;;;;0.80;0.70;;;11.50;97.40;;;;;;5004898;28;20525;-77
2022/12/28 10:41:19;;;;;;;1.20;0.83;;;11.60;97.20;;;;;;5004266;28;20479;-78
2022/12/28 10:43:50;;;;;;;5.00;1.10;;;11.60;97.20;;;;;;5003572;28;20441;-77
2022/12/28 10:46:18;;;;;;;2.23;0.73;;;11.60;97.30;;;;;;5003258;28;20476;-77
2022/12/28 10:48:47;;;;;;;1.50;0.80;;;11.60;97.40;;;;;;5003043;28;20456;-77
2022/12/28 10:51:18;;;;;;;1.80;0.70;;;11.70;97.20;;;;;;4983923;28;20477;-78
2022/12/28 10:53:46;;;;;;;1.67;1.00;;;11.70;97.00;;;;;;4981522;28;20456;-77
2022/12/28 10:56:25;;;;;;;1.10;0.70;;;11.60;96.80;;;;;;4982141;28;20555;-77
2022/12/28 10:58:54;;;;;;;0.90;0.80;;;11.60;96.80;;;;;;4981889;28;20473;-77
2022/12/28 11:01:27;;;;;;;3.30;0.93;;;11.60;96.80;;;;;;4980537;28;20457;-77
2022/12/28 11:04:05;;;;;;;2.97;0.77;;;11.60;96.90;;;;;;4980049;28;20810;-77
2022/12/28 11:06:35;;;;;;;3.07;1.00;;;11.60;97.00;;;;;;4981185;28;20451;-77
2022/12/28 11:09:15;;;;;;;1.57;1.27;;;11.60;97.10;;;;;;4980494;28;20463;-78
2022/12/28 11:11:44;;;;;;;2.30;1.10;;;11.70;96.80;;;;;;4979099;28;21007;-77
2022/12/28 11:14:17;;;;;;;1.40;1.30;;;11.70;96.70;;;;;;4980154;28;20460;-78
2022/12/28 11:16:52;;;;;;;3.93;1.27;;;11.70;96.50;;;;;;4987327;28;20437;-77
2022/12/28 11:19:19;;;;;;;2.70;0.83;;;11.80;96.60;;;;;;4987802;28;20482;-78
2022/12/28 11:21:48;;;;;;;1.43;1.17;;;11.80;96.40;;;;;;4982573;28;20464;-78
2022/12/28 11:24:18;;;;;;;6.50;1.07;;;11.80;96.20;;;;;;4980236;28;21002;-77
2022/12/28 11:26:48;;;;;;;2.97;0.90;;;11.80;96.40;;;;;;4979414;28;20880;-77
2022/12/28 11:29:16;;;;;;;7.10;1.17;;;11.80;95.90;;;;;;4983459;28;20468;-76
2022/12/28 11:31:47;;;;;;;7.57;1.37;;;11.90;96.00;;;;;;4990302;28;20457;-77
2022/12/28 11:34:19;;;;;;;4.97;1.33;;;11.90;95.90;;;;;;4979941;28;20998;-78
2022/12/28 11:36:48;;;;;;;7.30;1.30;;;11.90;95.80;;;;;;4978782;28;20433;-78
2022/12/28 11:39:41;;;;;;;4.83;0.90;;;11.90;95.80;;;;;;4981276;28;20524;-79
2022/12/28 11:42:08;;;;;;;2.50;1.30;;;11.80;94.90;;;;;;4997611;28;20440;-79
2022/12/28 11:44:52;;;;;;;4.80;1.63;;;11.80;95.30;;;;;;4996945;28;20491;-78
2022/12/28 11:47:31;;;;;;;3.60;1.07;;;11.80;95.40;;;;;;4996738;28;20471;-78
2022/12/28 11:50:48;;;;;;;2.73;1.00;;;11.90;95.50;;;;;;4998063;28;20491;-78
2022/12/28 11:53:49;;;;;;;2.73;1.30;;;11.90;95.10;;;;;;4997073;28;20453;-78
2022/12/28 11:56:19;;;;;;;2.27;1.10;;;11.80;94.80;;;;;;4995970;28;20452;-78
2022/12/28 11:59:00;;;;;;;3.10;1.13;;;11.80;95.10;;;;;;4994012;28;20486;-78
2022/12/28 12:01:47;;;;;;;3.80;0.90;;;11.90;95.20;;;;;;4992769;28;20459;-77
2022/12/28 12:04:37;;;;;;;1.83;0.90;;;11.90;94.50;;;;;;4984082;28;20960;-79
2022/12/28 12:07:42;;;;;;;2.00;1.10;;;11.80;94.20;;;;;;4979479;28;20491;-77
2022/12/28 12:10:29;;;;;;;3.17;1.00;;;11.80;94.70;;;;;;4985617;28;20482;-78
2022/12/28 12:12:58;;;;;;;3.60;1.07;;;11.80;94.60;;;;;;4992091;28;20844;-78
2022/12/28 12:15:39;;;;;;;2.40;0.73;;;11.90;94.90;;;;;;4984402;28;20494;-77
2022/12/28 12:18:08;;;;;;;3.97;1.10;;;11.80;94.50;;;;;;4990117;28;20456;-78
2022/12/28 12:20:51;;;;;;;2.70;1.20;;;11.80;94.40;;;;;;4986208;28;20466;-78
2022/12/28 12:23:29;;;;;;;2.30;0.90;;;11.80;94.00;;;;;;4975655;28;20799;-77
2022/12/28 12:25:59;;;;;;;4.13;1.03;;;11.70;94.40;;;;;;4991202;28;20491;-77
2022/12/28 12:28:39;;;;;;;3.23;1.00;;;11.70;94.40;;;;;;4995773;28;20463;-77
2022/12/28 12:31:11;;;;;;;3.53;1.10;;;11.70;94.40;;;;;;4989507;28;20468;-77
2022/12/28 12:33:42;;;;;;;4.47;1.20;;;11.70;94.50;;;;;;4996310;28;20592;-77
2022/12/28 12:36:22;;;;;;;1.90;0.80;;;11.60;94.30;;;;;;4997730;28;20530;-77
2022/12/28 12:39:22;;;;;;;3.70;0.80;;;11.60;94.60;;;;;;4996632;28;20987;-77
2022/12/28 12:41:59;;;;;;;3.83;0.90;;;11.60;94.60;;;;;;4997190;28;20499;-78
2022/12/28 12:44:33;;;;;;;3.50;1.27;;;11.70;94.60;;;;;;4993630;28;21007;-78
2022/12/28 12:47:32;;;;;;;5.20;0.90;;;11.70;94.50;;;;;;4999190;28;20460;-78
2022/12/28 12:50:32;;;;;;;1.27;1.00;;;11.60;94.00;;;;;;4995790;28;20460;-77
2022/12/28 12:53:06;;;;;;;1.30;0.93;;;11.70;94.00;;;;;;4998179;28;20944;-78
2022/12/28 12:55:49;;;;;;;1.43;0.90;;;11.60;94.00;;;;;;4995952;28;20488;-77
2022/12/28 12:58:23;;;;;;;2.60;0.80;;;11.70;93.80;;;;;;4989064;28;20463;-78
2022/12/28 13:01:14;;;;;;;2.43;1.10;;;11.70;94.00;;;;;;4997601;28;20463;-78
2022/12/28 13:03:44;;;;;;;1.63;1.07;;;11.70;93.90;;;;;;4998532;28;20433;-78
2022/12/28 13:06:14;;;;;;;1.70;0.80;;;11.70;93.90;;;;;;4997028;28;20492;-78
2022/12/28 13:08:46;;;;;;;2.07;0.87;;;11.60;94.10;;;;;;4998790;28;20448;-78
2022/12/28 13:11:14;;;;;;;9.33;1.50;;;11.70;94.30;;;;;;4996540;28;20476;-78
2022/12/28 13:13:44;;;;;;;3.40;1.50;;;11.60;94.40;;;;;;4988432;28;20480;-78
2022/12/28 13:16:16;;;;;;;2.60;1.13;;;11.70;94.40;;;;;;4995037;28;21010;-78
2022/12/28 13:18:53;;;;;;;0.97;0.87;;;11.60;94.40;;;;;;4996135;28;20461;-78
2022/12/28 13:21:21;;;;;;;3.80;1.40;;;11.60;94.50;;;;;;4990953;28;20473;-78
2022/12/28 13:23:48;;;;;;;2.10;1.33;;;11.60;94.50;;;;;;4997308;28;20467;-77
2022/12/28 13:26:16;;;;;;;1.40;0.90;;;11.70;94.20;;;;;;4994746;28;20501;-78
2022/12/28 13:28:49;;;;;;;5.57;1.10;;;11.70;94.00;;;;;;4988001;28;20482;-78
2022/12/28 13:31:20;;;;;;;4.93;1.33;;;11.70;93.90;;;;;;4987428;28;20468;-78
2022/12/28 13:33:55;;;;;;;4.23;1.23;;;11.70;93.90;;;;;;4993690;28;20504;-78
2022/12/28 13:36:22;;;;;;;4.57;2.40;;;11.70;94.00;;;;;;4994585;28;20467;-78
2022/12/28 13:39:10;;;;;;;3.90;1.80;;;11.70;93.90;;;;;;4992860;28;20483;-77